createdAt,value
2018-06-17T05:34:25.697Z,24.8
2018-06-17T05:35:16.066Z,24.8
2018-06-17T05:36:05.840Z,24.8
2018-06-17T05:36:55.894Z,24.8
2018-06-17T05:37:45.968Z,24.8
2018-06-17T05:38:36.042Z,24.8
2018-06-17T05:39:26.421Z,24.8
2018-06-17T05:40:16.446Z,24.8
2018-06-17T05:41:06.473Z,24.8
2018-06-17T05:41:56.599Z,24.8
2018-06-17T05:42:46.707Z,24.8
2018-06-17T05:43:36.752Z,24.8
2018-06-17T05:44:26.310Z,24.8
2018-06-17T05:45:16.807Z,24.7
2018-06-17T05:46:06.599Z,24.7
2018-06-17T05:46:57.004Z,24.8
2018-06-17T05:47:47.039Z,24.8
2018-06-17T05:48:37.044Z,24.7
2018-06-17T05:49:27.108Z,24.8
2018-06-17T05:50:17.171Z,24.8
2018-06-17T05:51:06.984Z,24.8
2018-06-17T05:51:57.296Z,24.8
2018-06-17T05:52:47.381Z,24.8
2018-06-17T05:53:37.476Z,24.7
2018-06-17T05:54:27.533Z,24.7
2018-06-17T05:55:17.548Z,24.7
2018-06-17T05:56:07.633Z,24.7
2018-06-17T05:56:57.432Z,24.7
2018-06-17T05:57:47.783Z,24.7
2018-06-17T05:58:37.928Z,24.7
2018-06-17T05:59:27.648Z,24.7
2018-06-17T06:00:18.007Z,24.7
2018-06-17T06:01:08.043Z,24.7
2018-06-17T06:01:58.075Z,24.7
2018-06-17T06:02:48.165Z,24.7
2018-06-17T06:03:37.937Z,24.8
2018-06-17T06:04:27.741Z,24.7
2018-06-17T06:05:18.309Z,24.7
2018-06-17T06:06:08.435Z,24.7
2018-06-17T06:06:58.497Z,24.7
2018-06-17T06:07:48.548Z,24.7
2018-06-17T06:08:38.594Z,24.7
2018-06-17T06:09:28.137Z,24.7
2018-06-17T06:10:19.071Z,24.8
2018-06-17T06:11:08.228Z,24.8
2018-06-17T06:11:58.306Z,24.7
2018-06-17T06:12:48.319Z,24.7
2018-06-17T06:13:38.141Z,24.8
2018-06-17T06:14:28.548Z,24.7
2018-06-17T06:15:18.038Z,24.7
2018-06-17T06:16:08.942Z,24.7
2018-06-17T06:16:58.165Z,24.7
2018-06-17T06:17:49.025Z,24.7
2018-06-17T06:18:38.518Z,24.7
2018-06-17T06:19:28.947Z,24.7
2018-06-17T06:20:19.002Z,24.7
2018-06-17T06:21:09.040Z,24.7
2018-06-17T06:21:59.041Z,24.7
2018-06-17T06:22:49.183Z,24.7
2018-06-17T06:23:39.727Z,24.8
2018-06-17T06:24:29.280Z,24.7
2018-06-17T06:25:19.300Z,24.7
2018-06-17T06:26:09.888Z,24.7
2018-06-17T06:26:59.402Z,24.7
2018-06-17T06:27:50.101Z,24.7
2018-06-17T06:28:39.287Z,24.7
2018-06-17T06:29:29.912Z,24.7
2018-06-17T06:30:20.215Z,24.7
2018-06-17T06:31:10.002Z,24.7
2018-06-17T06:32:00.362Z,24.7
2018-06-17T06:32:50.426Z,24.7
2018-06-17T06:33:40.481Z,24.7
2018-06-17T06:34:30.534Z,24.7
2018-06-17T06:35:20.594Z,24.7
2018-06-17T06:36:10.667Z,24.7
2018-06-17T06:37:00.212Z,24.7
2018-06-17T06:37:50.812Z,24.7
2018-06-17T06:38:40.309Z,24.7
2018-06-17T06:39:30.653Z,24.7
2018-06-17T06:40:20.699Z,24.7
2018-06-17T06:41:11.062Z,24.7
2018-06-17T06:42:01.101Z,24.6
2018-06-17T06:42:51.171Z,24.7
2018-06-17T06:43:41.225Z,24.6
2018-06-17T06:44:31.029Z,24.6
2018-06-17T06:45:20.808Z,24.6
2018-06-17T06:46:11.413Z,24.7
2018-06-17T06:47:01.527Z,24.7
2018-06-17T06:47:51.276Z,24.7
2018-06-17T06:48:41.351Z,24.6
2018-06-17T06:49:31.386Z,24.7
2018-06-17T06:50:21.757Z,24.7
2018-06-17T06:51:11.784Z,24.7
2018-06-17T06:52:00.761Z,24.7
2018-06-17T06:52:51.728Z,24.7
2018-06-17T06:53:42.048Z,24.7
2018-06-17T06:54:32.063Z,24.7
2018-06-17T06:55:21.881Z,24.7
2018-06-17T06:56:11.663Z,24.7
2018-06-17T06:57:02.313Z,24.8
2018-06-17T06:57:52.368Z,24.8
2018-06-17T06:58:42.432Z,24.8
2018-06-17T06:59:32.178Z,24.8
2018-06-17T07:00:21.960Z,24.8
2018-06-17T07:01:12.075Z,24.8
2018-06-17T07:02:02.178Z,24.8
2018-06-17T07:02:52.423Z,24.8
2018-06-17T07:03:42.500Z,24.8
2018-06-17T07:04:32.828Z,24.8
2018-06-17T07:05:22.683Z,24.8
2018-06-17T07:06:12.679Z,24.8
2018-06-17T07:07:03.038Z,24.8
2018-06-17T07:07:53.050Z,24.8
2018-06-17T07:08:43.161Z,24.8
2018-06-17T07:09:32.637Z,24.8
2018-06-17T07:10:22.981Z,24.8
2018-06-17T07:11:12.770Z,24.8
2018-06-17T07:12:03.425Z,24.8
2018-06-17T07:12:53.447Z,24.6
2018-06-17T07:13:42.967Z,27.4
2018-06-17T07:14:33.569Z,50.3
2018-06-17T07:15:23.082Z,61
2018-06-17T07:16:13.487Z,61.3
2018-06-17T07:17:03.768Z,59.9
2018-06-17T07:17:52.992Z,59
2018-06-17T07:18:43.891Z,58.4
2018-06-17T07:19:33.951Z,57.6
2018-06-17T07:20:23.725Z,56.8
2018-06-17T07:21:13.841Z,56
2018-06-17T07:22:03.429Z,55.2
2018-06-17T07:22:54.262Z,54.4
2018-06-17T07:23:44.295Z,53.7
2018-06-17T07:24:34.312Z,52.9
2018-06-17T07:25:24.392Z,52.2
2018-06-17T07:26:13.894Z,51.5
2018-06-17T07:27:04.285Z,50.9
2018-06-17T07:27:54.070Z,50.3
2018-06-17T07:28:44.354Z,49.6
2018-06-17T07:29:34.452Z,49
2018-06-17T07:30:24.774Z,48.4
2018-06-17T07:31:14.823Z,47.8
2018-06-17T07:32:04.622Z,47.3
2018-06-17T07:32:54.978Z,46.8
2018-06-17T07:33:44.834Z,46.3
2018-06-17T07:34:34.836Z,47.4
2018-06-17T07:35:24.621Z,48.2
2018-06-17T07:36:14.978Z,60.3
2018-06-17T07:37:05.363Z,65.1
2018-06-17T07:37:55.094Z,64.5
2018-06-17T07:38:45.412Z,62.4
2018-06-17T07:39:34.918Z,59.5
2018-06-17T07:40:25.592Z,57.4
2018-06-17T07:41:15.318Z,56.2
2018-06-17T07:42:05.125Z,55.4
2018-06-17T07:42:55.761Z,54.8
2018-06-17T07:43:46.179Z,54.4
2018-06-17T07:44:35.925Z,54.2
2018-06-17T07:45:25.367Z,55.3
2018-06-17T07:46:15.701Z,62.6
2018-06-17T07:47:06.062Z,65.5
2018-06-17T07:47:55.572Z,65.9
2018-06-17T07:48:45.910Z,65.2
2018-06-17T07:49:36.293Z,62.5
2018-06-17T07:50:25.739Z,59.6
2018-06-17T07:51:16.103Z,58.2
2018-06-17T07:52:56.496Z,59.6
2018-06-17T07:53:46.304Z,60.8
2018-06-17T07:54:36.604Z,61.9
2018-06-17T07:55:26.703Z,62.3
2018-06-17T07:56:16.214Z,62.2
2018-06-17T07:57:06.863Z,61.7
2018-06-17T07:57:56.666Z,60.6
2018-06-17T07:58:46.971Z,59.8
2018-06-17T07:59:36.446Z,59.9
2018-06-17T08:00:27.053Z,60.9
2018-06-17T08:01:17.115Z,62.1
2018-06-17T08:02:06.913Z,63
2018-06-17T08:02:56.981Z,63.6
2018-06-17T08:03:47.311Z,63.7
2018-06-17T08:04:37.301Z,63.6
2018-06-17T08:05:27.444Z,63.5
2018-06-17T08:06:17.237Z,63.7
2018-06-17T08:07:07.578Z,64.1
2018-06-17T08:07:57.631Z,64.5
2018-06-17T08:08:47.724Z,64.9
2018-06-17T08:09:37.780Z,65.3
2018-06-17T08:10:27.832Z,65.4
2018-06-17T08:11:17.902Z,65.5
2018-06-17T08:12:07.685Z,65.6
2018-06-17T08:12:58.002Z,65.8
2018-06-17T08:13:48.067Z,66
2018-06-17T08:14:38.185Z,66.3
2018-06-17T08:15:28.203Z,66.5
2018-06-17T08:16:18.287Z,66.7
2018-06-17T08:17:08.371Z,66.9
2018-06-17T08:17:57.847Z,67
2018-06-17T08:18:48.485Z,67.1
2018-06-17T08:19:38.522Z,67.3
2018-06-17T08:20:28.313Z,67.5
2018-06-17T08:21:18.673Z,67.6
2018-06-17T08:22:08.740Z,67.8
2018-06-17T08:22:58.540Z,68
2018-06-17T08:23:48.596Z,68.2
2018-06-17T08:24:38.934Z,68.3
2018-06-17T08:25:28.437Z,68.5
2018-06-17T08:26:18.753Z,68.6
2018-06-17T08:27:09.097Z,68.7
2018-06-17T08:27:59.159Z,68.8
2018-06-17T08:28:48.978Z,68.9
2018-06-17T08:29:39.290Z,69
2018-06-17T08:30:29.494Z,69.3
2018-06-17T08:31:19.147Z,69.6
2018-06-17T08:32:08.947Z,69.8
2018-06-17T08:32:59.546Z,69.9
2018-06-17T08:33:49.629Z,70.1
2018-06-17T08:34:39.119Z,70.1
2018-06-17T08:35:29.779Z,70.1
2018-06-17T08:36:19.868Z,70.2
2018-06-17T08:37:09.635Z,70.3
2018-06-17T08:37:59.697Z,70.4
2018-06-17T08:38:49.163Z,70.4
2018-06-17T08:39:39.231Z,70.5
2018-06-17T08:40:29.631Z,70.4
2018-06-17T08:41:20.194Z,70.3
2018-06-17T08:42:09.996Z,70.3
2018-06-17T08:43:00.084Z,70.3
2018-06-17T08:43:49.904Z,70.2
2018-06-17T08:44:40.495Z,70.1
2018-06-17T08:45:29.709Z,70.1
2018-06-17T08:46:20.599Z,70.1
2018-06-17T08:47:10.678Z,70.1
2018-06-17T08:48:00.723Z,70.1
2018-06-17T08:48:50.775Z,70.1
2018-06-17T08:49:40.565Z,70.2
2018-06-17T08:50:30.906Z,70.2
2018-06-17T08:51:20.677Z,70.3
2018-06-17T08:52:10.769Z,70.3
2018-06-17T08:53:01.103Z,70.3
2018-06-17T08:53:50.878Z,70.3
2018-06-17T08:54:40.930Z,70.3
2018-06-17T08:55:31.273Z,70.4
2018-06-17T08:56:20.831Z,70.5
2018-06-17T08:57:11.143Z,70.6
2018-06-17T08:58:01.494Z,70.7
2018-06-17T08:58:50.733Z,70.8
2018-06-17T08:59:41.060Z,70.8
2018-06-17T09:00:30.851Z,70.8
2018-06-17T09:01:21.441Z,70.8
2018-06-17T09:02:11.821Z,70.6
2018-06-17T09:03:01.847Z,70.4
2018-06-17T09:03:52.014Z,70.2
2018-06-17T09:04:42.000Z,69.9
2018-06-17T09:05:32.080Z,69.8
2018-06-17T09:06:21.544Z,69.8
2018-06-17T09:07:12.164Z,69.7
2018-06-17T09:08:02.257Z,69.7
2018-06-17T09:08:52.029Z,69.7
2018-06-17T09:09:42.378Z,69.8
2018-06-17T09:10:31.884Z,69.8
2018-06-17T09:11:21.961Z,69.8
2018-06-17T09:12:12.626Z,69.8
2018-06-17T09:13:02.362Z,69.9
2018-06-17T09:13:52.672Z,69.9
2018-06-17T09:14:42.750Z,69.9
2018-06-17T09:15:32.809Z,70.1
2018-06-17T09:16:22.156Z,70.1
2018-06-17T09:17:12.951Z,70.2
2018-06-17T09:18:03.049Z,70.3
2018-06-17T09:18:53.068Z,69.7
2018-06-17T09:19:43.223Z,68.5
2018-06-17T09:20:33.077Z,67.5
2018-06-17T09:21:22.998Z,66.4
2018-06-17T09:22:13.084Z,65.6
2018-06-17T09:23:03.392Z,65.3
2018-06-17T09:23:52.972Z,66
2018-06-17T09:24:43.263Z,67.1
2018-06-17T09:25:33.593Z,67.9
2018-06-17T09:26:23.655Z,68.2
2018-06-17T09:27:13.420Z,68.4
2018-06-17T09:28:03.821Z,68.6
2018-06-17T09:28:53.348Z,68.7
2018-06-17T09:29:43.912Z,68.9
2018-06-17T09:30:33.974Z,69.2
2018-06-17T09:31:24.067Z,69.6
2018-06-17T09:32:14.666Z,69.9
2018-06-17T09:33:03.685Z,70.3
2018-06-17T09:33:54.280Z,70.4
2018-06-17T09:34:44.289Z,70.6
2018-06-17T09:35:34.396Z,70.7
2018-06-17T09:36:23.876Z,70.9
2018-06-17T09:37:14.481Z,71.1
2018-06-17T09:38:04.298Z,71.4
2018-06-17T09:38:54.182Z,71.6
2018-06-17T09:39:44.675Z,71.8
2018-06-17T09:40:34.756Z,72
2018-06-17T09:41:24.554Z,72.1
2018-06-17T09:42:14.597Z,72.3
2018-06-17T09:43:04.930Z,71.9
2018-06-17T09:43:54.449Z,70.8
2018-06-17T09:44:45.072Z,70.3
2018-06-17T09:45:34.024Z,70.6
2018-06-17T09:46:25.250Z,70.6
2018-06-17T09:47:15.258Z,69.6
2018-06-17T09:48:04.501Z,68.4
2018-06-17T09:48:55.128Z,68.1
2018-06-17T09:49:45.187Z,68.9
2018-06-17T09:50:35.492Z,69.9
2018-06-17T09:51:25.589Z,70.9
2018-06-17T09:52:15.678Z,71.5
2018-06-17T09:53:05.431Z,71.8
2018-06-17T09:53:55.496Z,71.3
2018-06-17T09:54:45.867Z,69.6
2018-06-17T09:55:35.632Z,67.7
2018-06-17T09:56:25.720Z,66.4
2018-06-17T09:57:15.492Z,66.8
2018-06-17T09:58:06.094Z,68.3
2018-06-17T09:58:55.884Z,69.8
2018-06-17T09:59:46.242Z,70.9
2018-06-17T10:00:36.039Z,71.4
2018-06-17T10:01:26.526Z,71.3
2018-06-17T10:02:16.151Z,70.9
2018-06-17T10:03:06.204Z,70.7
2018-06-17T10:03:55.989Z,70.9
2018-06-17T10:04:46.597Z,71.5
2018-06-17T10:05:36.674Z,72.1
2018-06-17T10:06:26.511Z,72.7
2018-06-17T10:07:16.824Z,72.9
2018-06-17T10:08:06.034Z,73
2018-06-17T10:08:56.926Z,73
2018-06-17T10:09:46.731Z,73.1
2018-06-17T10:10:37.088Z,73.3
2018-06-17T10:11:27.153Z,73.6
2018-06-17T10:12:17.169Z,73.9
2018-06-17T10:13:07.263Z,73.9
2018-06-17T10:13:57.302Z,73.9
2018-06-17T10:14:47.181Z,74.1
2018-06-17T10:15:37.144Z,74.3
2018-06-17T10:16:27.220Z,74.4
2018-06-17T10:17:17.589Z,73.9
2018-06-17T10:18:07.638Z,72.6
2018-06-17T10:18:57.167Z,72.3
2018-06-17T10:19:47.770Z,72.8
2018-06-17T10:20:37.876Z,73.6
2018-06-17T10:21:27.885Z,74.3
2018-06-17T10:22:17.943Z,74.4
2018-06-17T10:23:08.024Z,74.4
2018-06-17T10:23:57.507Z,73.2
2018-06-17T10:24:48.155Z,71.5
2018-06-17T10:25:37.678Z,70.2
2018-06-17T10:26:28.015Z,69.3
2018-06-17T10:27:18.327Z,68.9
2018-06-17T10:28:07.838Z,68.9
2018-06-17T10:28:58.472Z,68.7
2018-06-17T10:29:48.542Z,68.3
2018-06-17T10:30:38.367Z,67.5
2018-06-17T10:31:28.096Z,66.8
2018-06-17T10:32:18.503Z,66.9
2018-06-17T10:33:08.520Z,66.6
2018-06-17T10:33:58.122Z,66.1
2018-06-17T10:34:48.910Z,65.4
2018-06-17T10:35:38.434Z,64.8
2018-06-17T10:36:29.079Z,63.8
2018-06-17T10:37:18.856Z,62.8
2018-06-17T10:38:09.628Z,61.9
2018-06-17T10:38:58.721Z,60.9
2018-06-17T10:39:49.051Z,60.1
2018-06-17T10:40:38.824Z,59.3
2018-06-17T10:41:29.447Z,58.4
2018-06-17T10:42:19.518Z,57.7
2018-06-17T10:43:08.987Z,56.9
2018-06-17T10:43:59.354Z,56.3
2018-06-17T10:44:49.697Z,55.6
2018-06-17T10:45:39.772Z,54.9
2018-06-17T10:46:29.824Z,54.3
2018-06-17T10:47:18.971Z,53.6
2018-06-17T10:48:09.368Z,53.1
2018-06-17T10:49:00.535Z,52.4
2018-06-17T10:49:49.597Z,51.9
2018-06-17T10:50:40.074Z,51.3
2018-06-17T10:51:30.249Z,50.8
2018-06-17T10:52:20.004Z,50.3
2018-06-17T10:53:10.392Z,49.8
2018-06-17T10:54:00.384Z,49.3
2018-06-17T10:54:50.188Z,48.8
2018-06-17T10:55:41.111Z,48.3
2018-06-17T10:56:30.611Z,47.8
2018-06-17T10:57:20.394Z,47.4
2018-06-17T10:58:10.451Z,47
2018-06-17T10:59:00.253Z,46.6
2018-06-17T10:59:50.832Z,46.2
2018-06-17T11:00:40.885Z,45.8
2018-06-17T11:01:30.719Z,45.4
2018-06-17T11:02:20.299Z,45.1
2018-06-17T11:03:10.857Z,44.7
2018-06-17T11:04:01.169Z,44.4
2018-06-17T11:04:50.957Z,44
2018-06-17T11:05:42.481Z,43.7
2018-06-17T11:06:31.093Z,43.3
2018-06-17T11:07:21.423Z,43
2018-06-17T11:08:11.509Z,42.7
2018-06-17T11:09:01.571Z,42.4
2018-06-17T11:09:51.376Z,42.1
2018-06-17T11:10:41.408Z,41.9
2018-06-17T11:11:31.191Z,41.6
2018-06-17T11:12:21.523Z,41.3
2018-06-17T11:13:12.098Z,41
2018-06-17T11:14:01.387Z,40.7
2018-06-17T11:14:51.995Z,40.5
2018-06-17T11:15:41.808Z,40.3
2018-06-17T11:16:31.308Z,40.1
2018-06-17T11:17:21.916Z,39.8
2018-06-17T11:18:12.290Z,39.6
2018-06-17T11:19:02.041Z,39.4
2018-06-17T11:19:52.142Z,39.1
2018-06-17T11:20:42.207Z,38.9
2018-06-17T11:21:32.498Z,38.7
2018-06-17T11:22:22.616Z,38.4
2018-06-17T11:23:12.399Z,38.3
2018-06-17T11:24:02.762Z,38.1
2018-06-17T11:24:52.499Z,37.9
2018-06-17T11:25:42.832Z,37.7
2018-06-17T11:26:32.836Z,37.5
2018-06-17T11:27:22.974Z,37.3
2018-06-17T11:28:12.746Z,37.1
2018-06-17T11:29:02.274Z,36.9
2018-06-17T11:29:52.593Z,36.8
2018-06-17T11:30:43.226Z,36.6
2018-06-17T11:31:33.280Z,36.4
2018-06-17T11:32:23.099Z,36.3
2018-06-17T11:33:12.866Z,36.1
2018-06-17T11:34:03.227Z,35.9
2018-06-17T11:34:53.252Z,35.8
2018-06-17T11:35:43.650Z,35.6
2018-06-17T11:36:33.677Z,35.5
2018-06-17T11:37:23.465Z,35.4
2018-06-17T11:38:13.516Z,35.2
2018-06-17T11:39:05.118Z,35.1
2018-06-17T11:39:53.981Z,34.9
2018-06-17T11:40:43.976Z,34.8
2018-06-17T11:41:33.803Z,34.7
2018-06-17T11:42:23.921Z,34.6
2018-06-17T11:43:14.206Z,34.4
2018-06-17T11:44:04.285Z,34.3
2018-06-17T11:44:54.046Z,34.2
2018-06-17T11:45:44.418Z,34.1
2018-06-17T11:46:34.171Z,34
2018-06-17T11:47:24.226Z,33.9
2018-06-17T11:48:14.561Z,33.8
2018-06-17T11:49:04.085Z,33.6
2018-06-17T11:49:54.414Z,33.6
2018-06-17T11:50:44.466Z,33.4
2018-06-17T11:51:34.256Z,33.3
2018-06-17T11:52:24.350Z,33.2
2018-06-17T11:53:14.676Z,33.1
2018-06-17T11:54:04.755Z,33
2018-06-17T11:54:54.548Z,32.9
2018-06-17T11:55:44.599Z,32.8
2018-06-17T11:56:34.661Z,32.7
2018-06-17T11:57:25.266Z,32.6
2018-06-17T11:58:14.842Z,32.4
2018-06-17T11:59:04.930Z,32.4
2018-06-17T11:59:55.482Z,32.3
2018-06-17T12:00:45.573Z,32.2
2018-06-17T12:01:35.609Z,32.1
2018-06-17T12:02:25.664Z,32.1
2018-06-17T12:03:15.739Z,31.9
2018-06-17T12:04:05.215Z,31.9
2018-06-17T12:04:55.546Z,31.8
2018-06-17T12:05:45.930Z,31.8
2018-06-17T12:06:35.962Z,31.7
2018-06-17T12:07:26.042Z,31.6
2018-06-17T12:08:16.113Z,31.5
2018-06-17T12:09:05.916Z,31.4
2018-06-17T12:09:56.246Z,31.4
2018-06-17T12:10:46.296Z,31.3
2018-06-17T12:11:36.347Z,31.3
2018-06-17T12:12:26.417Z,31.2
2018-06-17T12:13:16.476Z,31.1
2018-06-17T12:14:06.542Z,31.1
2018-06-17T12:14:56.375Z,31
2018-06-17T12:15:46.686Z,30.9
2018-06-17T12:16:36.199Z,30.9
2018-06-17T12:17:26.794Z,30.8
2018-06-17T12:18:16.889Z,30.8
2018-06-17T12:19:06.929Z,30.7
2018-06-17T12:19:56.798Z,30.6
2018-06-17T12:20:47.058Z,30.6
2018-06-17T12:21:37.127Z,30.5
2018-06-17T12:22:27.203Z,30.4
2018-06-17T12:23:17.278Z,30.4
2018-06-17T12:24:06.561Z,30.3
2018-06-17T12:24:56.913Z,30.2
2018-06-17T12:25:47.497Z,30.2
2018-06-17T12:26:37.249Z,30.1
2018-06-17T12:27:27.094Z,30.1
2018-06-17T12:28:17.378Z,30.1
2018-06-17T12:29:07.418Z,30
2018-06-17T12:29:57.499Z,30
2018-06-17T12:30:47.413Z,29.9
2018-06-17T12:31:37.880Z,29.8
2018-06-17T12:32:27.700Z,29.8
2018-06-17T12:33:17.473Z,29.8
